Time;durP1;ratioP1;P1;durP2;ratioP2;P2;SDS_P1;SDS_P2;PMS_P1;PMS_P2;Temp;Humidity;BMP_temperature;BMP_pressure;BME280_temperature;BME280_humidity;BME280_pressure;Samples;Min_cycle;Max_cycle;Signal;HPM_P1;HPM_P2
2023/04/18 00:01:29;;;;;;;10.83;1.73;;;;;;;6.08;100.00;101540.84;4953142;29;20617;-86
2023/04/18 00:03:55;;;;;;;1.53;1.43;;;;;;;6.05;100.00;101535.91;4953335;29;20182;-86
2023/04/18 00:06:21;;;;;;;1.77;1.37;;;;;;;6.06;100.00;101543.78;4968908;28;20645;-86
2023/04/18 00:08:46;;;;;;;1.97;1.87;;;;;;;6.02;100.00;101533.72;4953041;28;20209;-86
2023/04/18 00:11:11;;;;;;;4.47;4.07;;;;;;;5.98;100.00;101527.97;4953219;29;20284;-86
2023/04/18 00:13:39;;;;;;;0.17;0.17;;;;;;;5.97;100.00;101538.00;4954147;29;20178;-86
2023/04/18 00:16:06;;;;;;;1.13;1.03;;;;;;;5.97;100.00;101535.28;4952968;28;20584;-86
2023/04/18 00:18:32;;;;;;;1.13;0.97;;;;;;;5.90;100.00;101536.56;4953086;29;20174;-86
2023/04/18 00:21:00;;;;;;;4.37;4.07;;;;;;;5.81;100.00;101538.06;4952579;29;20728;-85
2023/04/18 00:23:26;;;;;;;3.40;3.07;;;;;;;5.79;100.00;101527.47;4954098;28;20174;-87
2023/04/18 00:25:52;;;;;;;6.90;3.53;;;;;;;5.74;100.00;101538.22;4953305;29;20240;-86
2023/04/18 00:28:18;;;;;;;3.63;2.03;;;;;;;5.71;100.00;101538.75;4952911;28;20174;-86
2023/04/18 00:30:44;;;;;;;4.23;3.50;;;;;;;5.69;100.00;101540.88;4969052;28;20216;-87
2023/04/18 00:33:10;;;;;;;4.63;4.03;;;;;;;5.67;100.00;101545.75;4951906;29;20277;-86
2023/04/18 00:35:36;;;;;;;4.53;4.13;;;;;;;5.66;100.00;101544.94;4953879;29;20653;-86
2023/04/18 00:38:02;;;;;;;2.53;1.90;;;;;;;5.67;100.00;101552.00;4953194;28;20175;-85
2023/04/18 00:40:27;;;;;;;1.60;1.50;;;;;;;5.69;100.00;101543.59;4954005;28;20777;-86
2023/04/18 00:42:53;;;;;;;1.90;1.80;;;;;;;5.70;100.00;101544.41;4953859;29;20178;-86
2023/04/18 00:45:18;;;;;;;3.07;2.63;;;;;;;5.64;100.00;101541.66;4952826;29;20175;-86
2023/04/18 00:47:43;;;;;;;2.80;2.57;;;;;;;5.64;100.00;101551.66;4953947;28;20669;-87
2023/04/18 00:50:14;;;;;;;5.70;4.57;;;;;;;5.60;100.00;101551.34;4968643;28;20211;-86
2023/04/18 00:52:40;;;;;;;0.77;0.77;;;;;;;5.61;100.00;101552.16;4952663;29;20241;-86
2023/04/18 00:55:10;;;;;;;3.83;3.33;;;;;;;5.62;100.00;101553.78;4954194;28;20178;-86
2023/04/18 00:57:38;;;;;;;2.10;1.90;;;;;;;5.58;100.00;101541.81;4952627;28;20198;-85
2023/04/18 01:00:09;;;;;;;6.73;3.33;;;;;;;5.59;100.00;101533.44;4952455;29;20206;-87
2023/04/18 01:02:38;;;;;;;3.90;3.50;;;;;;;5.55;100.00;101539.63;4952473;29;20185;-84
2023/04/18 01:05:07;;;;;;;2.10;1.90;;;;;;;5.59;100.00;101540.75;4953934;28;20253;-86
2023/04/18 01:07:36;;;;;;;5.40;4.83;;;;;;;5.57;100.00;101537.47;4952506;29;20167;-86
2023/04/18 01:10:02;;;;;;;2.37;2.17;;;;;;;5.54;100.00;101541.50;4952713;28;20205;-87
2023/04/18 01:12:30;;;;;;;5.23;3.53;;;;;;;5.48;100.00;101533.53;4953493;28;20231;-85
2023/04/18 01:14:56;;;;;;;3.80;2.17;;;;;;;5.50;100.00;101534.13;4953869;28;20406;-85
2023/04/18 01:17:22;;;;;;;5.57;3.73;;;;;;;5.50;100.00;101544.97;4954077;28;20198;-85
2023/04/18 01:19:47;;;;;;;0.00;0.00;;;;;;;5.54;100.00;101535.28;4953807;28;20653;-86
2023/04/18 01:22:14;;;;;;;1.13;1.00;;;;;;;5.50;100.00;101532.25;4955856;29;20269;-87
2023/04/18 01:24:42;;;;;;;2.67;2.13;;;;;;;5.49;100.00;101530.56;4956950;28;20672;-86
2023/04/18 01:27:13;;;;;;;0.70;0.70;;;;;;;5.52;100.00;101530.09;4956180;28;20517;-86
2023/04/18 01:29:39;;;;;;;4.77;4.37;;;;;;;5.48;100.00;101536.25;4955386;29;20568;-86
2023/04/18 01:32:05;;;;;;;2.30;2.20;;;;;;;5.49;100.00;101533.28;4971703;28;20229;-86
2023/04/18 01:34:30;;;;;;;3.03;2.83;;;;;;;5.50;100.00;101539.56;4956839;28;20174;-86
2023/04/18 01:36:56;;;;;;;6.40;5.80;;;;;;;5.51;100.00;101533.06;4956801;29;20673;-87
2023/04/18 01:39:21;;;;;;;1.07;1.07;;;;;;;5.52;100.00;101532.00;4956908;29;20621;-87
2023/04/18 01:41:46;;;;;;;4.73;4.33;;;;;;;5.50;100.00;101528.72;4956752;28;20258;-86
2023/04/18 01:44:12;;;;;;;1.60;1.37;;;;;;;5.49;100.00;101533.28;4956811;29;20227;-86
2023/04/18 01:46:37;;;;;;;3.67;3.40;;;;;;;5.45;100.00;101523.22;4956768;28;20313;-87
2023/04/18 01:49:04;;;;;;;4.97;4.57;;;;;;;5.45;100.00;101531.34;4956636;28;20177;-85
2023/04/18 01:51:30;;;;;;;3.07;2.77;;;;;;;5.44;100.00;101530.53;4955151;28;20619;-86
2023/04/18 01:53:55;;;;;;;5.87;5.33;;;;;;;5.37;100.00;101528.00;4954599;29;20186;-86
2023/04/18 01:56:20;;;;;;;4.17;3.60;;;;;;;5.36;100.00;101523.66;4955457;29;20601;-86
2023/04/18 01:58:48;;;;;;;2.80;2.63;;;;;;;5.36;100.00;101523.66;4956822;28;20178;-85
2023/04/18 02:01:13;;;;;;;2.00;1.90;;;;;;;5.44;100.00;101524.28;4956524;28;20195;-87
2023/04/18 02:03:41;;;;;;;6.07;5.57;;;;;;;5.44;100.00;101522.38;4956308;29;20170;-86
2023/04/18 02:06:10;;;;;;;1.20;1.10;;;;;;;5.42;100.00;101523.72;4971118;28;20171;-87
2023/04/18 02:08:35;;;;;;;3.07;2.77;;;;;;;5.37;100.00;101522.59;4955092;29;20390;-86
2023/04/18 02:11:01;;;;;;;11.10;7.63;;;;;;;5.36;100.00;101522.84;4954969;29;20744;-86
2023/04/18 02:13:34;;;;;;;7.77;7.00;;;;;;;5.32;100.00;101527.09;4955961;28;20174;-87
2023/04/18 02:15:59;;;;;;;2.87;2.67;;;;;;;5.29;100.00;101533.03;4954850;29;20206;-85
2023/04/18 02:18:25;;;;;;;2.57;2.47;;;;;;;5.30;100.00;101532.75;4956079;28;20188;-86
2023/04/18 02:20:51;;;;;;;5.17;4.37;;;;;;;5.28;100.00;101525.97;4954742;28;20194;-87
2023/04/18 02:23:20;;;;;;;4.23;3.83;;;;;;;5.25;100.00;101531.88;4954564;29;20709;-86
2023/04/18 02:25:48;;;;;;;4.60;4.10;;;;;;;5.27;100.00;101533.28;4956800;28;20197;-85
2023/04/18 02:28:13;;;;;;;11.73;7.33;;;;;;;5.19;100.00;101536.38;4955848;29;20175;-86
2023/04/18 02:30:38;;;;;;;4.63;4.20;;;;;;;5.20;100.00;101526.38;4955908;28;20268;-87
2023/04/18 02:33:04;;;;;;;6.30;5.80;;;;;;;5.19;100.00;101522.84;4954343;29;20183;-86
2023/04/18 02:35:30;;;;;;;3.20;2.97;;;;;;;5.26;100.00;101525.41;4970519;28;20182;-86
2023/04/18 02:37:55;;;;;;;7.77;3.93;;;;;;;5.21;100.00;101526.16;4970764;28;20663;-86
2023/04/18 02:40:27;;;;;;;4.30;3.90;;;;;;;5.20;100.00;101527.19;4970737;28;20198;-86
2023/04/18 02:42:52;;;;;;;5.77;2.70;;;;;;;5.22;100.00;101525.09;4955423;28;20198;-86
2023/04/18 02:45:17;;;;;;;2.57;2.40;;;;;;;5.13;100.00;101521.16;4954215;29;20225;-87
2023/04/18 02:47:44;;;;;;;1.50;0.93;;;;;;;5.19;100.00;101527.44;4954255;29;20181;-86
2023/04/18 02:52:44;;;;;;;4.53;3.27;;;;;;;5.20;100.00;101523.66;5050318;23;20243;-76
2023/04/18 02:55:10;;;;;;;1.67;1.57;;;;;;;5.19;100.00;101530.16;5013149;28;20185;-76
2023/04/18 02:57:35;;;;;;;8.07;5.30;;;;;;;5.16;100.00;101528.75;5013149;28;20208;-76
2023/04/18 03:00:00;;;;;;;3.27;3.07;;;;;;;5.19;100.00;101532.88;5013144;28;20180;-76
2023/04/18 03:02:26;;;;;;;2.03;1.90;;;;;;;5.21;100.00;101537.00;5012507;28;20200;-76
2023/04/18 03:04:51;;;;;;;3.80;2.37;;;;;;;5.16;100.00;101528.75;5013094;28;20184;-76
2023/04/18 03:07:16;;;;;;;4.80;4.27;;;;;;;5.16;100.00;101536.91;5012999;28;20173;-76
2023/04/18 03:09:42;;;;;;;3.57;3.27;;;;;;;5.19;100.00;101535.56;5013131;28;20227;-76
2023/04/18 03:12:07;;;;;;;2.40;0.77;;;;;;;5.17;100.00;101535.81;5012782;28;20204;-76
2023/04/18 03:14:32;;;;;;;1.57;1.50;;;;;;;5.22;100.00;101535.09;5012911;28;20183;-76
2023/04/18 03:16:58;;;;;;;3.97;2.40;;;;;;;5.19;100.00;101538.28;5012886;28;20561;-76
2023/04/18 03:19:23;;;;;;;6.87;3.40;;;;;;;5.18;100.00;101536.63;5012893;28;20673;-76
2023/04/18 03:21:48;;;;;;;2.97;2.77;;;;;;;5.16;100.00;101534.19;5012968;28;20172;-76
2023/04/18 03:24:14;;;;;;;2.13;2.03;;;;;;;5.15;100.00;101537.97;5012876;28;20180;-76
2023/04/18 03:26:39;;;;;;;5.00;4.57;;;;;;;5.15;100.00;101537.16;5012834;28;20200;-76
2023/04/18 03:29:05;;;;;;;3.43;3.13;;;;;;;5.15;100.00;101539.84;5011390;28;20708;-77
2023/04/18 03:31:32;;;;;;;2.17;2.07;;;;;;;5.20;100.00;101543.44;5012642;28;20176;-76
2023/04/18 03:33:57;;;;;;;2.27;2.17;;;;;;;5.16;100.00;101538.78;5010589;28;20550;-76
2023/04/18 03:36:24;;;;;;;9.90;3.60;;;;;;;5.18;100.00;101536.63;5012238;28;20204;-76
2023/04/18 03:38:49;;;;;;;8.70;6.90;;;;;;;5.17;100.00;101545.84;5011321;28;20569;-76
2023/04/18 03:41:14;;;;;;;5.27;4.83;;;;;;;5.17;100.00;101541.25;5012500;28;20267;-76
2023/04/18 03:43:40;;;;;;;12.90;11.63;;;;;;;5.17;100.00;101535.81;5011849;28;20273;-76
2023/04/18 03:46:05;;;;;;;11.23;8.90;;;;;;;5.19;100.00;101536.38;5011183;28;20718;-76
2023/04/18 03:48:34;;;;;;;2.27;2.13;;;;;;;5.21;100.00;101537.00;5012410;28;20251;-76
2023/04/18 03:50:59;;;;;;;12.03;8.53;;;;;;;5.24;100.00;101539.19;5012257;28;20184;-76
2023/04/18 03:53:25;;;;;;;12.20;6.90;;;;;;;5.23;100.00;101540.25;5012189;28;20283;-76
2023/04/18 03:55:50;;;;;;;3.23;2.93;;;;;;;5.23;100.00;101548.41;5012310;28;20227;-76
2023/04/18 03:58:16;;;;;;;3.10;2.40;;;;;;;5.24;100.00;101547.31;5012387;28;20184;-76
2023/04/18 04:00:42;;;;;;;2.67;2.50;;;;;;;5.28;100.00;101551.16;5012335;28;20533;-76
2023/04/18 04:03:07;;;;;;;9.10;7.90;;;;;;;5.28;100.00;101558.47;5011999;28;20677;-76
2023/04/18 04:05:33;;;;;;;7.27;4.87;;;;;;;5.31;100.00;101553.38;5012105;28;20696;-76
2023/04/18 04:07:58;;;;;;;6.57;4.43;;;;;;;5.27;100.00;101552.25;5012285;28;20230;-76
2023/04/18 04:10:23;;;;;;;4.10;3.70;;;;;;;5.29;100.00;101550.09;5012266;28;20185;-76
2023/04/18 04:12:49;;;;;;;6.30;4.83;;;;;;;5.27;100.00;101554.94;5012195;28;20207;-76
2023/04/18 04:15:14;;;;;;;5.47;2.87;;;;;;;5.32;100.00;101554.19;5010860;28;20184;-76
2023/04/18 04:17:39;;;;;;;0.70;0.70;;;;;;;5.36;100.00;101556.16;5012001;28;20684;-76
2023/04/18 04:20:06;;;;;;;10.00;8.37;;;;;;;5.34;100.00;101549.34;5011801;28;20180;-76
2023/04/18 04:22:31;;;;;;;14.13;7.90;;;;;;;5.34;100.00;101557.47;5011719;28;20192;-76
2023/04/18 04:24:59;;;;;;;4.60;4.17;;;;;;;5.31;100.00;101553.38;5012012;28;20234;-76
2023/04/18 04:27:25;;;;;;;9.33;6.60;;;;;;;5.32;100.00;101560.44;5012093;28;20173;-76
2023/04/18 04:29:51;;;;;;;4.63;3.80;;;;;;;5.34;100.00;101561.00;5010838;28;20311;-76
2023/04/18 04:32:16;;;;;;;4.93;4.63;;;;;;;5.35;100.00;101567.22;5011817;28;20279;-76
2023/04/18 04:34:42;;;;;;;0.43;0.37;;;;;;;5.37;100.00;101570.53;5011782;28;20181;-76
2023/04/18 04:37:07;;;;;;;4.77;4.37;;;;;;;5.37;100.00;101573.25;5011831;28;20204;-76
2023/04/18 04:39:32;;;;;;;5.03;4.53;;;;;;;5.34;100.00;101577.25;5011951;28;20179;-76
2023/04/18 04:42:03;;;;;;;3.53;3.23;;;;;;;5.33;100.00;101572.91;5011807;28;20197;-76
2023/04/18 04:44:28;;;;;;;2.20;2.00;;;;;;;5.32;100.00;101579.41;5011786;28;20176;-76
2023/04/18 04:46:53;;;;;;;10.20;7.83;;;;;;;5.30;100.00;101581.53;5012005;28;20180;-76
2023/04/18 04:49:19;;;;;;;9.00;6.20;;;;;;;5.30;100.00;101576.13;5011814;28;20654;-76
2023/04/18 04:51:44;;;;;;;8.47;4.07;;;;;;;5.35;100.00;101575.38;5011694;28;20586;-76
2023/04/18 04:54:09;;;;;;;8.60;7.40;;;;;;;5.32;100.00;101573.97;5011815;28;20589;-76
2023/04/18 04:56:35;;;;;;;13.67;10.67;;;;;;;5.31;100.00;101571.50;5014370;28;20290;-76
2023/04/18 04:59:00;;;;;;;5.03;4.47;;;;;;;5.33;100.00;101581.03;5015561;28;20180;-76
2023/04/18 05:01:26;;;;;;;6.57;5.70;;;;;;;5.35;100.00;101576.22;5015361;28;20303;-76
2023/04/18 05:03:51;;;;;;;1.67;1.13;;;;;;;5.35;100.00;101581.63;5013707;28;20204;-76
2023/04/18 05:06:19;;;;;;;4.00;3.67;;;;;;;5.35;100.00;101581.63;5014010;28;20246;-76
2023/04/18 05:08:48;;;;;;;7.47;6.70;;;;;;;5.38;100.00;101580.31;5014052;28;20177;-76
2023/04/18 05:11:14;;;;;;;6.40;5.80;;;;;;;5.37;100.00;101586.81;5015240;28;20208;-75
2023/04/18 05:13:40;;;;;;;9.43;7.57;;;;;;;5.35;100.00;101591.63;5015121;28;20210;-76
2023/04/18 05:16:06;;;;;;;6.33;5.77;;;;;;;5.40;100.00;101597.13;5015654;28;20197;-76
2023/04/18 05:18:31;;;;;;;8.57;7.27;;;;;;;5.39;100.00;101600.91;5014454;28;20581;-76
2023/04/18 05:20:57;;;;;;;2.93;2.67;;;;;;;5.42;100.00;101603.13;5016399;28;20183;-76
2023/04/18 05:23:22;;;;;;;12.97;10.70;;;;;;;5.42;100.00;101596.88;5016192;28;20200;-76
2023/04/18 05:25:48;;;;;;;6.20;5.60;;;;;;;5.39;100.00;101603.63;5015870;28;20195;-76
2023/04/18 05:28:13;;;;;;;2.93;2.73;;;;;;;5.40;100.00;101604.44;5015352;28;20187;-76
2023/04/18 05:30:39;;;;;;;2.67;2.43;;;;;;;5.43;100.00;101604.75;5013821;28;20290;-76
2023/04/18 05:33:04;;;;;;;4.80;2.33;;;;;;;5.45;100.00;101608.03;5014515;28;20196;-76
2023/04/18 05:35:30;;;;;;;3.47;3.13;;;;;;;5.46;100.00;101601.56;5014964;28;20250;-76
2023/04/18 05:37:57;;;;;;;4.03;3.57;;;;;;;5.44;100.00;101608.28;5014835;28;20222;-76
2023/04/18 05:40:22;;;;;;;10.27;4.83;;;;;;;5.39;100.00;101617.19;5015053;28;20180;-76
2023/04/18 05:42:47;;;;;;;7.97;4.60;;;;;;;5.37;100.00;101620.13;5014538;28;20199;-76
2023/04/18 05:45:13;;;;;;;1.30;1.30;;;;;;;5.37;100.00;101614.72;5013660;28;20184;-76
2023/04/18 05:47:38;;;;;;;0.20;0.20;;;;;;;5.43;100.00;101622.91;5014568;28;20184;-76
2023/04/18 05:50:04;;;;;;;1.70;1.60;;;;;;;5.43;100.00;101620.22;5014648;28;20168;-76
2023/04/18 05:52:31;;;;;;;1.80;1.70;;;;;;;5.44;100.00;101619.13;5014392;28;20226;-76
2023/04/18 05:54:56;;;;;;;5.23;3.90;;;;;;;5.44;100.00;101621.84;5014588;28;20252;-76
2023/04/18 05:57:21;;;;;;;5.07;4.57;;;;;;;5.43;100.00;101625.63;5014665;28;20304;-76
2023/04/18 05:59:47;;;;;;;8.67;3.67;;;;;;;5.45;100.00;101613.47;5013147;28;20445;-76
2023/04/18 06:02:12;;;;;;;6.90;5.87;;;;;;;5.39;100.00;101628.00;5012700;28;20200;-76
2023/04/18 06:04:41;;;;;;;3.20;2.93;;;;;;;5.42;100.00;101616.69;5014142;28;20180;-76
2023/04/18 06:07:07;;;;;;;7.97;7.27;;;;;;;5.43;100.00;101631.03;5013774;28;20177;-75
2023/04/18 06:09:33;;;;;;;3.77;3.40;;;;;;;5.44;100.00;101627.25;5014164;28;20177;-76
2023/04/18 06:11:59;;;;;;;4.57;2.27;;;;;;;5.42;100.00;101632.94;5013947;28;20200;-76
2023/04/18 06:14:24;;;;;;;4.17;3.87;;;;;;;5.43;100.00;101629.16;5013965;28;20184;-76
2023/04/18 06:16:50;;;;;;;8.37;7.33;;;;;;;5.42;100.00;101634.81;5013811;28;20206;-75
2023/04/18 06:19:15;;;;;;;6.50;6.03;;;;;;;5.43;100.00;101626.44;5013965;28;20188;-76
2023/04/18 06:21:41;;;;;;;8.60;7.83;;;;;;;5.40;100.00;101626.13;5013743;28;20255;-76
2023/04/18 06:24:07;;;;;;;11.00;9.37;;;;;;;5.43;100.00;101634.56;5013643;28;20176;-76
2023/04/18 06:26:33;;;;;;;10.30;9.30;;;;;;;5.48;100.00;101628.41;5012564;28;20195;-76
2023/04/18 06:28:59;;;;;;;4.20;3.83;;;;;;;5.50;100.00;101635.25;5013843;28;20251;-76
2023/04/18 06:31:24;;;;;;;8.37;2.93;;;;;;;5.56;100.00;101630.69;5013587;28;20664;-76
2023/04/18 06:33:49;;;;;;;1.73;1.63;;;;;;;5.61;100.00;101631.59;5013494;28;20196;-76
2023/04/18 06:36:15;;;;;;;0.20;0.20;;;;;;;5.61;100.00;101636.19;5012278;28;20208;-76
2023/04/18 06:38:40;;;;;;;4.93;2.53;;;;;;;5.65;100.00;101640.06;5013553;28;20283;-76
2023/04/18 06:41:05;;;;;;;6.63;6.07;;;;;;;5.64;100.00;101633.81;5012207;28;20219;-76
2023/04/18 06:43:31;;;;;;;5.90;5.27;;;;;;;5.66;100.00;101641.72;5013364;28;20284;-77
2023/04/18 06:45:56;;;;;;;7.60;6.60;;;;;;;5.57;100.00;101646.72;5013414;28;20263;-76
2023/04/18 06:48:22;;;;;;;5.30;4.80;;;;;;;5.65;100.00;101643.59;5013491;28;20176;-77
2023/04/18 06:50:47;;;;;;;2.63;1.80;;;;;;;5.71;100.00;101647.19;5013477;28;20188;-76
2023/04/18 06:53:13;;;;;;;4.50;4.10;;;;;;;5.73;100.00;101647.75;5014406;28;20196;-77
2023/04/18 06:55:39;;;;;;;7.03;6.43;;;;;;;5.75;100.00;101650.22;5013356;28;20175;-77
2023/04/18 06:58:05;;;;;;;4.83;4.27;;;;;;;5.75;100.00;101655.63;5012147;28;20181;-77
2023/04/18 07:00:30;;;;;;;3.67;3.40;;;;;;;5.72;100.00;101648.81;5013107;28;20179;-77
2023/04/18 07:02:55;;;;;;;7.33;6.57;;;;;;;5.68;100.00;101656.66;5013567;28;20588;-77
2023/04/18 07:05:21;;;;;;;3.03;2.13;;;;;;;5.77;100.00;101659.75;5014237;28;20641;-77
2023/04/18 07:07:46;;;;;;;4.00;3.63;;;;;;;5.82;100.00;101667.16;5013349;28;20177;-77
2023/04/18 07:10:11;;;;;;;4.70;4.40;;;;;;;5.87;100.00;101665.31;5013217;28;20430;-77
2023/04/18 07:12:37;;;;;;;5.30;3.63;;;;;;;5.95;100.00;101666.81;5013767;28;20207;-77
2023/04/18 07:15:03;;;;;;;6.87;6.27;;;;;;;5.91;100.00;101662.94;5014805;28;20176;-77
2023/04/18 07:17:28;;;;;;;3.47;2.70;;;;;;;5.99;100.00;101664.41;5013396;28;20227;-77
2023/04/18 07:19:54;;;;;;;20.60;6.17;;;;;;;5.96;100.00;101665.75;5014120;28;20180;-77
2023/04/18 07:22:19;;;;;;;0.80;0.77;;;;;;;6.11;100.00;101667.84;5014211;28;20668;-76
2023/04/18 07:24:44;;;;;;;2.67;2.47;;;;;;;6.24;100.00;101675.63;5014079;28;20669;-77
2023/04/18 07:27:10;;;;;;;3.50;2.83;;;;;;;6.29;100.00;101674.84;5014719;28;20185;-77
2023/04/18 07:29:35;;;;;;;5.87;4.63;;;;;;;6.45;100.00;101680.22;5014013;28;20176;-77
2023/04/18 07:32:01;;;;;;;6.43;5.83;;;;;;;6.42;100.00;101682.63;5012445;28;20196;-77
2023/04/18 07:34:28;;;;;;;6.90;3.77;;;;;;;6.25;100.00;101679.97;5013258;28;20180;-77
2023/04/18 07:36:55;;;;;;;6.20;5.60;;;;;;;6.29;100.00;101686.53;5014355;28;20608;-76
2023/04/18 07:39:21;;;;;;;6.57;5.97;;;;;;;6.47;100.00;101693.53;5013037;28;20177;-77
2023/04/18 07:41:46;;;;;;;2.13;2.03;;;;;;;6.68;100.00;101686.47;5013187;28;20177;-76
2023/04/18 07:44:11;;;;;;;4.77;4.33;;;;;;;6.67;100.00;101682.91;5012367;28;20251;-77
2023/04/18 07:46:37;;;;;;;6.67;6.13;;;;;;;6.53;100.00;101685.22;5012685;28;20172;-77
2023/04/18 07:49:03;;;;;;;4.47;3.73;;;;;;;6.65;100.00;101686.94;5011135;28;20215;-76
2023/04/18 07:51:31;;;;;;;2.73;2.50;;;;;;;6.61;100.00;101691.25;5012563;28;20645;-77
2023/04/18 07:53:58;;;;;;;10.90;7.23;;;;;;;6.55;100.00;101685.78;5013124;28;20173;-77
2023/04/18 07:56:23;;;;;;;8.17;7.47;;;;;;;6.56;100.00;101689.31;5012464;28;20200;-78
2023/04/18 07:58:49;;;;;;;5.13;4.70;;;;;;;6.56;100.00;101690.13;5012732;28;20180;-77
2023/04/18 08:01:17;;;;;;;7.10;3.30;;;;;;;6.63;100.00;101697.25;5012420;28;20183;-77
2023/04/18 08:03:42;;;;;;;2.37;1.63;;;;;;;6.81;100.00;101695.03;5012369;28;20196;-77
2023/04/18 08:06:08;;;;;;;6.97;3.93;;;;;;;6.70;100.00;101695.16;5015251;28;20172;-77
2023/04/18 08:08:34;;;;;;;1.40;1.30;;;;;;;6.74;100.00;101699.00;5012749;28;20226;-77
2023/04/18 08:10:59;;;;;;;0.73;0.73;;;;;;;6.98;100.00;101700.34;5009880;23;20244;-79
2023/04/18 08:13:24;;;;;;;3.87;3.57;;;;;;;6.75;100.00;101697.94;4995985;28;20188;-80
2023/04/18 08:15:50;;;;;;;4.83;4.43;;;;;;;6.85;100.00;101708.91;4994287;28;20197;-79
2023/04/18 08:18:16;;;;;;;6.23;5.50;;;;;;;6.94;100.00;101698.38;4995333;28;20182;-79
2023/04/18 08:20:42;;;;;;;2.77;2.57;;;;;;;7.10;100.00;101701.03;5002694;28;20176;-79
2023/04/18 08:23:08;;;;;;;9.10;8.10;;;;;;;7.19;100.00;101695.94;4997470;28;20671;-78
2023/04/18 08:25:35;;;;;;;8.63;7.77;;;;;;;7.15;100.00;101698.34;5009378;28;20193;-78
2023/04/18 08:28:00;;;;;;;3.63;3.43;;;;;;;7.29;100.00;101704.19;5004701;28;20276;-78
2023/04/18 08:30:26;;;;;;;0.47;0.27;;;;;;;7.49;100.00;101703.53;5000726;28;20670;-78
2023/04/18 08:32:51;;;;;;;6.13;5.53;;;;;;;7.35;100.00;101696.88;5001748;28;20188;-82
2023/04/18 08:35:17;;;;;;;7.20;6.50;;;;;;;7.42;100.00;101695.59;4995170;28;20205;-78
2023/04/18 08:37:42;;;;;;;2.03;1.57;;;;;;;7.51;100.00;101695.91;4996161;28;20294;-78
2023/04/18 08:40:08;;;;;;;3.93;3.63;;;;;;;7.64;100.00;101703.63;4996199;28;20537;-79
2023/04/18 08:42:35;;;;;;;0.87;0.67;;;;;;;7.82;100.00;101699.72;4995422;28;20173;-79
2023/04/18 08:45:00;;;;;;;5.23;4.80;;;;;;;7.91;100.00;101700.00;4994838;28;20196;-78
2023/04/18 08:47:29;;;;;;;6.17;5.60;;;;;;;7.59;99.89;101703.59;4994626;28;20177;-78
2023/04/18 08:49:56;;;;;;;4.67;4.27;;;;;;;7.68;100.00;101703.97;4994287;28;20183;-78
2023/04/18 08:52:22;;;;;;;3.43;3.03;;;;;;;7.57;99.98;101710.41;5033118;22;20223;-86
2023/04/18 08:54:49;;;;;;;1.20;1.10;;;;;;;7.73;100.00;101709.44;5015048;28;20185;-86
2023/04/18 08:57:15;;;;;;;6.07;5.47;;;;;;;7.62;99.28;101713.16;5014269;28;20208;-87
2023/04/18 08:59:44;;;;;;;3.97;3.67;;;;;;;7.65;99.28;101713.44;5016097;28;20259;-86
2023/04/18 09:02:10;;;;;;;2.77;2.60;;;;;;;7.71;99.14;101708.88;5015120;28;20270;-86
2023/04/18 09:04:42;;;;;;;3.53;3.27;;;;;;;7.66;99.93;101706.09;5016232;28;20240;-86
2023/04/18 09:07:12;;;;;;;3.60;3.30;;;;;;;7.57;99.91;101711.22;5015724;28;20177;-86
2023/04/18 09:09:49;;;;;;;3.80;3.43;;;;;;;7.70;100.00;101709.94;5021533;28;20160;-87
2023/04/18 09:12:25;;;;;;;1.90;1.80;;;;;;;7.90;100.00;101720.16;5036351;28;20195;-86
2023/04/18 09:15:14;;;;;;;5.23;4.73;;;;;;;7.88;99.41;101716.88;5035713;28;20177;-86
2023/04/18 09:17:44;;;;;;;5.57;4.30;;;;;;;7.89;98.92;101715.78;5020244;28;20215;-86
2023/04/18 09:20:11;;;;;;;5.50;5.00;;;;;;;7.84;98.15;101710.31;5014225;28;20176;-87
2023/04/18 09:22:49;;;;;;;1.07;1.07;;;;;;;8.11;98.55;101716.50;5015140;28;20307;-87
2023/04/18 09:25:24;;;;;;;5.20;4.73;;;;;;;8.26;96.98;101713.84;5015723;28;20176;-86
2023/04/18 09:27:51;;;;;;;4.77;4.13;;;;;;;8.17;94.92;101712.69;5015568;28;20172;-86
2023/04/18 09:30:40;;;;;;;6.97;6.30;;;;;;;8.15;93.98;101711.31;5015192;28;20173;-87
2023/04/18 09:33:08;;;;;;;3.97;3.67;;;;;;;8.26;94.63;101707.59;5014020;28;20173;-87
2023/04/18 09:35:35;;;;;;;9.00;6.60;;;;;;;8.22;93.53;101698.28;5014139;28;20424;-86
2023/04/18 09:38:01;;;;;;;4.70;4.30;;;;;;;8.44;94.11;101704.41;5014380;28;20204;-86
2023/04/18 09:40:26;;;;;;;3.23;2.63;;;;;;;8.45;93.05;101703.34;5013853;28;20183;-86
2023/04/18 09:42:53;;;;;;;3.23;2.93;;;;;;;8.43;91.80;101696.53;5016586;28;20196;-86
2023/04/18 09:45:19;;;;;;;2.20;2.10;;;;;;;8.49;91.27;101699.00;5015324;28;20431;-88
2023/04/18 09:47:45;;;;;;;4.80;2.10;;;;;;;8.45;91.38;101697.06;5014848;28;20177;-86
2023/04/18 09:50:10;;;;;;;6.30;3.80;;;;;;;8.53;90.69;101693.81;5014690;28;20180;-86
2023/04/18 09:52:38;;;;;;;2.77;2.53;;;;;;;8.76;90.57;101698.00;5014605;28;20263;-85
2023/04/18 09:55:07;;;;;;;5.57;5.07;;;;;;;8.64;88.81;101706.41;5014696;28;20631;-88
2023/04/18 09:57:35;;;;;;;4.30;1.57;;;;;;;8.81;88.88;101700.72;5014682;28;20201;-86
2023/04/18 10:00:16;;;;;;;2.13;1.93;;;;;;;8.83;88.48;101701.31;5013455;28;20177;-86
2023/04/18 10:03:10;;;;;;;3.93;2.60;;;;;;;8.86;87.97;101693.41;5014450;28;20195;-86
2023/04/18 10:05:39;;;;;;;4.93;3.97;;;;;;;8.87;88.39;101703.22;5013730;28;20252;-86
2023/04/18 10:08:05;;;;;;;2.60;2.40;;;;;;;8.95;88.38;101693.66;5013825;28;20264;-87
2023/04/18 10:10:31;;;;;;;4.57;2.83;;;;;;;8.98;88.18;101693.16;5014747;28;20184;-87
2023/04/18 10:12:58;;;;;;;2.47;2.27;;;;;;;8.74;87.82;101701.00;5013399;28;20173;-87
2023/04/18 10:15:26;;;;;;;2.77;2.57;;;;;;;8.61;87.68;101696.03;5013059;28;20176;-86
2023/04/18 10:17:53;;;;;;;1.80;1.60;;;;;;;8.73;88.40;101704.81;5013326;28;20212;-86
2023/04/18 10:20:23;;;;;;;4.40;3.57;;;;;;;8.79;88.48;101702.91;5014268;28;20555;-87
2023/04/18 10:22:49;;;;;;;2.20;2.10;;;;;;;8.77;88.37;101696.91;5013733;28;20172;-87
2023/04/18 10:25:40;;;;;;;2.87;2.57;;;;;;;8.65;88.37;101711.56;5012696;28;20552;-87
2023/04/18 10:28:07;;;;;;;1.20;1.20;;;;;;;8.75;87.67;101694.44;5005424;28;20191;-87
2023/04/18 10:30:50;;;;;;;2.20;1.30;;;;;;;8.85;87.40;101701.84;5014378;28;20259;-86
2023/04/18 10:33:25;;;;;;;3.87;3.60;;;;;;;8.85;87.16;101699.13;5013657;28;20172;-86
2023/04/18 10:36:02;;;;;;;3.77;3.47;;;;;;;8.89;87.32;101698.31;5012916;28;20212;-86
2023/04/18 10:38:28;;;;;;;1.23;1.13;;;;;;;8.88;86.32;101699.38;5012869;28;20238;-87
2023/04/18 10:41:18;;;;;;;1.83;1.73;;;;;;;8.97;86.17;101702.41;5013685;28;20267;-87
2023/04/18 10:44:08;;;;;;;1.43;1.30;;;;;;;8.93;86.17;101699.38;5012840;28;20180;-87
2023/04/18 10:46:41;;;;;;;4.03;3.77;;;;;;;8.83;86.47;101695.84;5011682;28;20172;-87
2023/04/18 10:49:18;;;;;;;1.87;1.77;;;;;;;8.91;86.42;101701.56;5013641;28;20198;-88
2023/04/18 10:51:48;;;;;;;0.47;0.47;;;;;;;8.90;86.00;101701.84;5013183;28;20226;-88
2023/04/18 10:54:40;;;;;;;3.23;3.00;;;;;;;8.87;85.83;101697.75;5012854;28;20179;-88
2023/04/18 10:57:10;;;;;;;1.77;1.23;;;;;;;8.90;85.58;101696.41;5012699;28;20295;-88
2023/04/18 10:59:48;;;;;;;2.13;2.03;;;;;;;8.87;85.34;101699.66;5011906;28;20528;-88
2023/04/18 11:02:22;;;;;;;1.50;1.40;;;;;;;9.00;85.75;101696.44;5013244;28;20223;-87
2023/04/18 11:04:55;;;;;;;0.10;0.10;;;;;;;9.10;85.10;101701.06;5012055;28;20172;-88
2023/04/18 11:07:33;;;;;;;4.23;3.93;;;;;;;9.02;85.04;101699.69;5013721;28;20169;-87
2023/04/18 11:10:01;;;;;;;2.77;2.57;;;;;;;8.78;84.15;101693.91;5016342;28;20177;-87
2023/04/18 11:12:33;;;;;;;4.13;3.83;;;;;;;8.71;84.53;101696.09;5015853;28;20188;-86
2023/04/18 11:15:00;;;;;;;3.53;3.23;;;;;;;8.71;84.66;101696.09;5013660;28;20227;-87
2023/04/18 11:17:34;;;;;;;4.00;2.60;;;;;;;8.98;84.70;101706.78;5009783;28;20250;-87
2023/04/18 11:20:13;;;;;;;3.00;2.73;;;;;;;8.85;84.31;101705.38;5013214;28;20169;-85
2023/04/18 11:22:52;;;;;;;2.00;1.87;;;;;;;8.87;84.59;101697.75;5011598;28;20242;-87
2023/04/18 11:25:22;;;;;;;2.87;2.60;;;;;;;8.78;83.28;101698.53;5013007;28;20191;-87
2023/04/18 11:27:54;;;;;;;2.63;1.90;;;;;;;8.82;83.88;101703.19;5011760;28;20191;-87
2023/04/18 11:30:22;;;;;;;0.57;0.57;;;;;;;8.97;84.52;101696.13;5012020;28;20662;-87